Rio Linda — WDD8906 — position and weather

sailwx.info

Track history (hours):
 
Tides and Currents Weather Stations Pressure Air Temp Water Temp Dewpoint Dewpoint Depression Visibility Wind Speed Wind Dir Waves Ship Positions

Rio Linda

Owner: Losch, Richard, Bend, OR. More information available from US FCC via Universal Licensing System and Coast Guard Vessel Documentation Center.

Last reported at 2017-Aug-05 02:33 UTC. Time now 2017-Aug-24 04:58 UTC.
Position N 47°36' W 122°15'.
Warning: this ship's position is 19 days out of date.

Length 17 m; draft 2 m.

Type: Pleasure craft. MMSI: 367304420.

Date/timePositionNaut miles runAvg speedWind from/ knotsBaromVisibWave heightAir tempDewpointWater temp
2017-Aug-05 02:33N 47°36' W 122°15'0 0.2
2017-Aug-05 02:27N 47°36' W 122°15'0 0.2
2017-Aug-05 02:00N 47°36' W 122°15'0 0.0
2017-Aug-05 01:30N 47°36' W 122°15'0 0.1
2017-Aug-05 00:56N 47°36' W 122°15'0 0.0
2017-Aug-05 00:27N 47°36' W 122°15'4 3.4
2017-Aug-04 23:20N 47°39' W 122°19'0 0.2
2017-Aug-04 23:00N 47°39' W 122°19'3 6.6
2017-Aug-04 22:30N 47°37' W 122°15'1 0.9
2017-Aug-04 21:52N 47°36' W 122°15'0 0.2
2017-Aug-04 21:30N 47°36' W 122°15'0 0.1
2017-Aug-04 21:00N 47°36' W 122°15'0 0.1
2017-Aug-04 20:29N 47°36' W 122°15'0 0.0
2017-Aug-04 19:59N 47°36' W 122°15'0 0.3
2017-Aug-04 19:18N 47°36' W 122°15'2 7.5
2017-Aug-04 18:58N 47°39' W 122°17'  
Track history (hours):
 
Tides and Currents Weather Stations Pressure Air Temp Water Temp Dewpoint Dewpoint Depression Visibility Wind Speed Wind Dir Waves Ship Positions

Rio Linda

Owner: Losch, Richard, Bend, OR. More information available from US FCC via Universal Licensing System and Coast Guard Vessel Documentation Center.

Last reported at 2017-Aug-05 02:33 UTC. Time now 2017-Aug-24 04:58 UTC.
Position N 47°36' W 122°15'.
Warning: this ship's position is 19 days out of date.

Length 17 m; draft 2 m.

Type: Pleasure craft. MMSI: 367304420.

Date/timePositionNaut miles runAvg speedWind from/ knotsBaromVisibWave heightAir tempDewpointWater temp
2017-Aug-05 02:33N 47°36' W 122°15'0 0.2
2017-Aug-05 02:27N 47°36' W 122°15'0 0.2
2017-Aug-05 02:00N 47°36' W 122°15'0 0.0
2017-Aug-05 01:30N 47°36' W 122°15'0 0.1
2017-Aug-05 00:56N 47°36' W 122°15'0 0.0
2017-Aug-05 00:27N 47°36' W 122°15'4 3.4
2017-Aug-04 23:20N 47°39' W 122°19'0 0.2
2017-Aug-04 23:00N 47°39' W 122°19'3 6.6
2017-Aug-04 22:30N 47°37' W 122°15'1 0.9
2017-Aug-04 21:52N 47°36' W 122°15'0 0.2
2017-Aug-04 21:30N 47°36' W 122°15'0 0.1
2017-Aug-04 21:00N 47°36' W 122°15'0 0.1
2017-Aug-04 20:29N 47°36' W 122°15'0 0.0
2017-Aug-04 19:59N 47°36' W 122°15'0 0.3
2017-Aug-04 19:18N 47°36' W 122°15'2 7.5
2017-Aug-04 18:58N 47°39' W 122°17'  

Dump ship's entire track history